createdAt,value
2018-11-20T00:02:33.143Z,99253.78
2018-11-20T00:06:16.929Z,99255.93
2018-11-20T00:10:00.578Z,99235.52
2018-11-20T00:13:36.204Z,99229.85
2018-11-20T00:17:19.876Z,99229.03
2018-11-20T00:21:06.524Z,99208.42
2018-11-20T00:24:50.249Z,99207.09
2018-11-20T00:28:33.964Z,99202.76
2018-11-20T00:32:17.661Z,99201.28
2018-11-20T00:36:01.280Z,99183.69
2018-11-20T00:39:44.908Z,99192.83
2018-11-20T00:43:28.576Z,99197.75
2018-11-20T00:47:12.258Z,99190.12
2018-11-20T00:50:55.959Z,99176.47
2018-11-20T00:54:39.576Z,99166.34
2018-11-20T00:58:16.709Z,99176.82
2018-11-20T01:02:00.364Z,99162.00
2018-11-20T01:05:43.990Z,99168.45
2018-11-20T01:09:05.886Z,99163.47
2018-11-20T01:12:49.552Z,99162.66
2018-11-20T01:16:33.255Z,99165.79
2018-11-20T01:20:16.817Z,99156.77
2018-11-20T01:24:00.478Z,99148.65
2018-11-20T01:27:44.183Z,99141.42
2018-11-20T01:31:27.889Z,99133.81
2018-11-20T01:35:11.564Z,99147.78
2018-11-20T01:38:55.288Z,99137.79
2018-11-20T01:42:38.925Z,99139.06
2018-11-20T01:46:22.902Z,99139.34
2018-11-20T01:50:06.529Z,99127.46
2018-11-20T01:53:50.240Z,99131.50
2018-11-20T01:57:33.960Z,99124.00
2018-11-20T02:01:17.582Z,99121.01
2018-11-20T02:05:01.173Z,99107.83
2018-11-20T02:08:44.847Z,99109.28
2018-11-20T02:12:28.561Z,99100.48
2018-11-20T02:16:12.231Z,99083.50
2018-11-20T02:19:55.893Z,99072.79
2018-11-20T02:23:39.617Z,99080.39
2018-11-20T02:27:23.325Z,99079.27
2018-11-20T02:31:07.010Z,99085.48
2018-11-20T02:34:50.607Z,99074.84
2018-11-20T02:38:34.232Z,99065.83
2018-11-20T02:42:18.000Z,99053.88
2018-11-20T02:46:01.676Z,99046.83
2018-11-20T02:49:45.348Z,99044.17
2018-11-20T02:53:29.058Z,99041.54
2018-11-20T02:57:12.693Z,99045.81
2018-11-20T03:00:56.414Z,99040.47
2018-11-20T03:04:40.062Z,99026.69
2018-11-20T03:08:23.739Z,99016.78
2018-11-20T03:12:07.379Z,99017.52
2018-11-20T03:15:51.168Z,99024.53
2018-11-20T03:19:34.700Z,99031.02
2018-11-20T03:23:18.356Z,99033.08
2018-11-20T03:26:55.504Z,99034.72
2018-11-20T03:31:19.668Z,99029.36
2018-11-20T03:35:03.345Z,99020.45
2018-11-20T03:38:47.019Z,99032.39
2018-11-20T03:42:30.662Z,99029.09
2018-11-20T03:46:14.360Z,99033.95
2018-11-20T03:49:58.034Z,99027.97
2018-11-20T03:53:41.711Z,99031.59
2018-11-20T03:57:25.343Z,99032.45
2018-11-20T04:01:09.031Z,99026.27
2018-11-20T04:04:52.593Z,99012.72
2018-11-20T04:08:36.313Z,99008.39
2018-11-20T04:12:19.969Z,99013.67
2018-11-20T04:16:03.636Z,99007.61
2018-11-20T04:19:47.314Z,99000.78
2018-11-20T04:23:20.373Z,99001.13
2018-11-20T04:27:04.037Z,99003.71
2018-11-20T04:31:25.545Z,99004.20
2018-11-20T04:35:28.799Z,99000.30
2018-11-20T04:39:05.338Z,98991.19
2018-11-20T04:42:48.983Z,98998.67
2018-11-20T04:46:32.833Z,98991.91
2018-11-20T04:50:04.445Z,98984.30
2018-11-20T04:53:48.025Z,98986.69
2018-11-20T04:57:31.705Z,98995.42
2018-11-20T05:01:15.348Z,98994.71
2018-11-20T05:04:58.963Z,98992.91
2018-11-20T05:08:42.629Z,98984.71
2018-11-20T05:12:26.299Z,98992.97
2018-11-20T05:16:10.185Z,98996.00
2018-11-20T05:19:53.861Z,98990.61
2018-11-20T05:23:37.489Z,98987.34
2018-11-20T05:27:21.193Z,98985.83
2018-11-20T05:31:04.872Z,98994.89
2018-11-20T05:34:48.442Z,98984.25
2018-11-20T05:38:32.144Z,98986.55
2018-11-20T05:42:15.790Z,98984.16
2018-11-20T05:45:59.476Z,98985.83
2018-11-20T05:49:43.180Z,98989.34
2018-11-20T05:53:26.769Z,98983.69
2018-11-20T05:57:10.384Z,98976.00
2018-11-20T06:00:54.035Z,98985.97
2018-11-20T06:04:37.722Z,98987.06
2018-11-20T06:08:09.937Z,98986.35
2018-11-20T06:11:53.556Z,98992.99
2018-11-20T06:15:37.229Z,98993.09
2018-11-20T06:19:20.866Z,98966.39
2018-11-20T06:23:04.510Z,98967.89
2018-11-20T06:26:48.195Z,98971.95
2018-11-20T06:30:31.862Z,98968.81
2018-11-20T06:34:13.681Z,98975.13
2018-11-20T06:37:57.344Z,98980.48
2018-11-20T06:41:40.994Z,98971.44
2018-11-20T06:45:24.767Z,98975.67
2018-11-20T06:49:08.428Z,98971.67
2018-11-20T06:52:52.218Z,98972.36
2018-11-20T06:56:35.882Z,98965.98
2018-11-20T07:00:19.478Z,98968.27
2018-11-20T07:04:03.184Z,98967.75
2018-11-20T07:07:46.933Z,98968.53
2018-11-20T07:11:20.509Z,98965.50
2018-11-20T07:15:04.231Z,98972.25
2018-11-20T07:18:47.801Z,98967.78
2018-11-20T07:22:31.543Z,98971.84
2018-11-20T07:26:15.111Z,98965.45
2018-11-20T07:29:58.758Z,98958.80
2018-11-20T07:33:42.413Z,98957.49
2018-11-20T07:37:26.369Z,98968.52
2018-11-20T07:41:09.854Z,98969.72
2018-11-20T07:44:53.460Z,98961.25
2018-11-20T07:48:37.218Z,98964.17
2018-11-20T07:52:20.933Z,98955.85
2018-11-20T07:56:04.744Z,98948.68
2018-11-20T07:59:48.247Z,98953.19
2018-11-20T08:03:31.850Z,98955.48
2018-11-20T08:07:15.563Z,98949.72
2018-11-20T08:10:59.222Z,98957.27
2018-11-20T08:14:42.929Z,98946.74
2018-11-20T08:18:26.609Z,98944.52
2018-11-20T08:22:10.301Z,98942.16
2018-11-20T08:25:54.184Z,98937.91
2018-11-20T08:29:26.860Z,98935.50
2018-11-20T08:33:10.542Z,98937.34
2018-11-20T08:36:54.156Z,98933.33
2018-11-20T08:40:37.870Z,98922.58
2018-11-20T08:44:21.541Z,98931.16
2018-11-20T08:48:05.093Z,98925.30
2018-11-20T08:51:48.743Z,98925.90
2018-11-20T08:55:32.371Z,98930.60
2018-11-20T08:59:16.010Z,98927.09
2018-11-20T09:02:59.710Z,98925.08
2018-11-20T09:06:43.313Z,98921.44
2018-11-20T09:10:27.003Z,98926.58
2018-11-20T09:14:10.577Z,98911.08
2018-11-20T09:17:54.269Z,98914.56
2018-11-20T09:21:37.878Z,98911.95
2018-11-20T09:25:21.560Z,98914.88
2018-11-20T09:29:05.157Z,98903.69
2018-11-20T09:32:41.640Z,98907.17
2018-11-20T09:36:25.286Z,98903.89
2018-11-20T09:40:49.579Z,98898.86
2018-11-20T09:45:11.095Z,98903.84
2018-11-20T09:48:54.739Z,98902.59
2018-11-20T09:52:38.901Z,98897.33
2018-11-20T09:56:22.574Z,98895.84
2018-11-20T10:00:06.237Z,98895.87
2018-11-20T10:03:49.935Z,98901.33
2018-11-20T10:07:33.553Z,98903.72
2018-11-20T10:11:17.190Z,98906.33
2018-11-20T10:15:00.967Z,98900.23
2018-11-20T10:18:44.471Z,98890.78
2018-11-20T10:22:28.182Z,98883.05
2018-11-20T10:26:09.567Z,98877.43
2018-11-20T10:29:53.110Z,98894.52
2018-11-20T10:33:36.816Z,98884.34
2018-11-20T10:37:18.137Z,98888.33
2018-11-20T10:41:01.795Z,98882.95
2018-11-20T10:44:45.463Z,98888.78
2018-11-20T10:48:29.149Z,98882.00
2018-11-20T10:56:05.664Z,98905.35
2018-11-20T10:59:49.394Z,98907.79
2018-11-20T11:03:33.048Z,98905.27
2018-11-20T11:07:17.241Z,98911.13
2018-11-20T11:11:00.860Z,98914.74
2018-11-20T11:14:44.516Z,98919.64
2018-11-20T11:18:28.332Z,98920.01
2018-11-20T11:22:11.769Z,98920.53
2018-11-20T11:25:55.461Z,98919.71
2018-11-20T11:29:39.138Z,98914.98
2018-11-20T11:33:24.267Z,98907.59
2018-11-20T11:37:04.606Z,98903.86
2018-11-20T11:40:48.592Z,98895.41
2018-11-20T11:44:24.033Z,98891.86
2018-11-20T11:48:07.739Z,98880.56
2018-11-20T11:51:51.429Z,98870.11
2018-11-20T11:55:35.118Z,98862.58
2018-11-20T11:59:18.836Z,98855.27
2018-11-20T12:10:36.307Z,98864.45
2018-11-20T12:13:59.116Z,98873.24
2018-11-20T12:17:42.934Z,98879.44
2018-11-20T12:21:26.531Z,98887.14
2018-11-20T12:25:03.816Z,98887.11
2018-11-20T12:28:47.523Z,98882.21
2018-11-20T12:32:31.193Z,98883.05
2018-11-20T12:36:14.853Z,98873.31
2018-11-20T12:39:58.472Z,98861.98
2018-11-20T12:47:15.065Z,98863.34
2018-11-20T12:50:56.635Z,98868.70
2018-11-20T12:54:40.384Z,98869.38
2018-11-20T12:58:24.286Z,98874.91
2018-11-20T13:02:07.974Z,98888.14
2018-11-20T13:05:51.619Z,98884.49
2018-11-20T13:09:35.588Z,98895.55
2018-11-20T13:13:13.140Z,98896.89
2018-11-20T13:16:56.886Z,98907.80
2018-11-20T13:20:40.473Z,98908.33
2018-11-20T13:24:24.284Z,98909.84
2018-11-20T13:28:07.905Z,98907.52
2018-11-20T13:31:51.732Z,98912.95
2018-11-20T13:35:35.359Z,98908.12
2018-11-20T13:39:19.072Z,98911.76
2018-11-20T13:43:04.380Z,98901.81
2018-11-20T13:46:48.058Z,98899.70
2018-11-20T13:54:24.467Z,98891.64
2018-11-20T13:58:08.041Z,98902.67
2018-11-20T14:01:44.668Z,98892.36
2018-11-20T14:05:28.324Z,98895.04
2018-11-20T14:09:12.015Z,98901.43
2018-11-20T14:12:55.819Z,98895.73
2018-11-20T14:16:42.048Z,98895.04
2018-11-20T14:20:25.717Z,98887.53
2018-11-20T14:24:09.415Z,98879.92
2018-11-20T14:28:23.047Z,98878.86
2018-11-20T14:32:09.065Z,98877.91
2018-11-20T14:35:54.570Z,98882.33
2018-11-20T14:39:37.462Z,98886.28
2018-11-20T14:43:20.278Z,98881.78
2018-11-20T14:47:03.180Z,98886.58
2018-11-20T14:50:45.960Z,98891.52
2018-11-20T14:54:28.819Z,98898.91
2018-11-20T14:58:11.621Z,98896.73
2018-11-20T15:01:54.501Z,98894.39
2018-11-20T15:05:37.389Z,98902.30
2018-11-20T15:09:20.211Z,98903.84
2018-11-20T15:13:03.242Z,98893.95
2018-11-20T15:16:46.100Z,98906.81
2018-11-20T15:20:28.933Z,98907.34
2018-11-20T15:23:59.547Z,98908.78
2018-11-20T15:27:42.353Z,98907.28
2018-11-20T15:31:25.202Z,98912.48
2018-11-20T15:35:08.060Z,98907.27
2018-11-20T15:38:50.955Z,98912.72
2018-11-20T15:42:22.376Z,98914.03
2018-11-20T15:46:05.308Z,98926.47
2018-11-20T15:49:48.145Z,98925.70
2018-11-20T15:53:31.009Z,98922.14
2018-11-20T15:57:13.810Z,98931.68
2018-11-20T16:00:56.765Z,98936.10
2018-11-20T16:04:39.624Z,98948.87
2018-11-20T16:08:22.430Z,98948.28
2018-11-20T16:12:05.360Z,98962.83
2018-11-20T16:15:48.213Z,98966.96
2018-11-20T16:19:20.546Z,98967.30
2018-11-20T16:23:03.550Z,98977.20
2018-11-20T16:26:46.335Z,98979.77
2018-11-20T16:30:30.553Z,98982.79
2018-11-20T16:34:13.441Z,98979.99
2018-11-20T16:37:58.186Z,98990.84
2018-11-20T16:41:42.308Z,98993.30
2018-11-20T16:45:24.315Z,98997.23
2018-11-20T16:49:07.186Z,98994.05
2018-11-20T16:52:50.008Z,98996.66
2018-11-20T16:56:32.905Z,99001.56
2018-11-20T17:00:15.749Z,98999.52
2018-11-20T17:03:58.576Z,99001.23
2018-11-20T17:07:41.480Z,98999.42
2018-11-20T17:11:24.430Z,98998.32
2018-11-20T17:15:07.315Z,98997.06
2018-11-20T17:18:50.137Z,99004.12
2018-11-20T17:22:32.987Z,99002.34
2018-11-20T17:26:15.822Z,99003.27
2018-11-20T17:29:58.671Z,98994.45
2018-11-20T17:33:41.476Z,98994.28
2018-11-20T17:37:24.301Z,99003.02
2018-11-20T17:41:07.191Z,99008.25
2018-11-20T17:44:53.575Z,99012.68
2018-11-20T17:48:32.893Z,99022.20
2018-11-20T17:52:15.725Z,99022.98
2018-11-20T17:55:58.648Z,99036.85
2018-11-20T17:59:41.488Z,99030.81
2018-11-20T18:03:24.590Z,99025.69
2018-11-20T18:07:07.490Z,99033.39
2018-11-20T18:10:50.366Z,99038.09
2018-11-20T18:14:33.205Z,99040.09
2018-11-20T18:18:16.084Z,99044.09
2018-11-20T18:21:58.907Z,99046.06
2018-11-20T18:25:41.742Z,99049.69
2018-11-20T18:29:24.595Z,99051.86
2018-11-20T18:33:07.443Z,99067.13
2018-11-20T18:36:50.296Z,99069.94
2018-11-20T18:40:33.148Z,99076.59
2018-11-20T18:44:16.034Z,99081.04
2018-11-20T18:47:58.857Z,99081.59
2018-11-20T18:51:30.974Z,99087.59
2018-11-20T18:55:13.864Z,99091.27
2018-11-20T18:58:54.143Z,99094.40
2018-11-20T19:02:37.023Z,99097.50
2018-11-20T19:06:19.874Z,99085.31
2018-11-20T19:10:02.734Z,99092.92
2018-11-20T19:13:45.617Z,99090.70
2018-11-20T19:17:28.463Z,99093.54
2018-11-20T19:21:11.307Z,99091.77
2018-11-20T19:24:54.212Z,99097.36
2018-11-20T19:28:37.067Z,99091.48
2018-11-20T19:32:19.947Z,99097.53
2018-11-20T19:36:02.853Z,99098.45
2018-11-20T19:39:48.126Z,99109.28
2018-11-20T19:43:30.984Z,99125.65
2018-11-20T19:47:13.838Z,99124.45
2018-11-20T19:50:57.967Z,99125.03
2018-11-20T19:54:39.636Z,99122.70
2018-11-20T19:58:17.600Z,99129.67
2018-11-20T20:02:00.422Z,99134.36
2018-11-20T20:05:43.252Z,99145.13
2018-11-20T20:09:29.273Z,99149.39
2018-11-20T20:13:12.200Z,99156.30
2018-11-20T20:16:55.034Z,99166.10
2018-11-20T20:20:38.295Z,99171.67
2018-11-20T20:24:08.369Z,99169.48
2018-11-20T20:27:51.325Z,99174.98
2018-11-20T20:31:34.224Z,99179.67
2018-11-20T20:35:17.126Z,99185.06
2018-11-20T20:38:59.956Z,99189.27
2018-11-20T20:42:42.847Z,99195.66
2018-11-20T20:46:25.686Z,99201.20
2018-11-20T20:50:06.980Z,99203.08
2018-11-20T20:53:49.982Z,99202.02
2018-11-20T20:57:32.819Z,99209.29
2018-11-20T21:01:15.682Z,99210.80
2018-11-20T21:05:00.086Z,99209.70
2018-11-20T21:08:45.247Z,99218.52
2018-11-20T21:12:25.842Z,99220.34
2018-11-20T21:15:59.171Z,99223.13
2018-11-20T21:19:41.992Z,99239.66
2018-11-20T21:23:25.365Z,99248.27
2018-11-20T21:27:08.282Z,99244.70
2018-11-20T21:30:51.140Z,99259.48
2018-11-20T21:34:33.987Z,99253.58
2018-11-20T21:38:16.863Z,99251.58
2018-11-20T21:41:59.776Z,99255.69
2018-11-20T21:45:42.629Z,99251.83
2018-11-20T21:49:25.437Z,99254.19
2018-11-20T21:53:00.070Z,99262.67
2018-11-20T21:56:42.189Z,99266.67
2018-11-20T22:00:30.775Z,99269.77
2018-11-20T22:04:13.655Z,99265.49
2018-11-20T22:07:56.543Z,99269.82
2018-11-20T22:11:39.410Z,99267.76
2018-11-20T22:15:22.241Z,99276.78
2018-11-20T22:19:05.123Z,99280.12
2018-11-20T22:22:47.950Z,99286.12
2018-11-20T22:26:31.605Z,99289.08
2018-11-20T22:30:05.970Z,99292.22
2018-11-20T22:33:48.929Z,99297.19
2018-11-20T22:37:31.925Z,99302.84
2018-11-20T22:41:14.804Z,99305.34
2018-11-20T22:44:57.689Z,99313.98
2018-11-20T22:48:40.527Z,99309.48
2018-11-20T22:52:23.429Z,99318.20
2018-11-20T22:56:06.240Z,99309.55
2018-11-20T22:59:49.197Z,99313.86
2018-11-20T23:03:24.063Z,99309.23
2018-11-20T23:07:06.922Z,99311.83
2018-11-20T23:10:31.220Z,99307.50
2018-11-20T23:13:55.110Z,99305.64
2018-11-20T23:17:19.003Z,99309.77
2018-11-20T23:20:42.961Z,99308.65
2018-11-20T23:24:06.860Z,99305.50
2018-11-20T23:27:31.186Z,99295.52
2018-11-20T23:30:55.100Z,99308.63
2018-11-20T23:34:19.053Z,99314.08
2018-11-20T23:37:43.414Z,99316.25
2018-11-20T23:41:07.323Z,99322.17
2018-11-20T23:44:31.216Z,99329.48
2018-11-20T23:47:55.139Z,99322.23
2018-11-20T23:51:19.058Z,99325.24
2018-11-20T23:54:42.972Z,99317.94
2018-11-20T23:58:06.972Z,99322.86
